Zeynalabdin Tagiyev — 9HLD8 — position and weather

sailwx.info

Track history (hours):
 
Tides and Currents Weather Stations Pressure Air Temp Water Temp Dewpoint Dewpoint Depression Visibility Wind Speed Wind Dir Waves Ship Positions

Zeynalabdin Tagiyev

Last reported at 2014-Sep-30 21:33 UTC. Time now 2014-Sep-30 22:05 UTC.
Position N 46°46' E 031°57'.

Length 140 m; draft 3.4 m.

Type: Cargo ship. MMSI: 256107000.

Date/timePositionNaut miles runAvg speedWind from/ knotsBaromVisibWave heightAir tempDewpointWater temp
2014-Sep-30 21:33N 46°46' E 031°57'0 0.0
2014-Sep-30 20:33N 46°46' E 031°57'0 0.0
2014-Sep-30 19:33N 46°46' E 031°57'0 0.0
2014-Sep-30 18:33N 46°46' E 031°57'0 0.0
2014-Sep-30 17:33N 46°46' E 031°57'0 0.0
2014-Sep-30 16:33N 46°46' E 031°57'0 0.0
2014-Sep-30 15:33N 46°46' E 031°57'0 0.0
2014-Sep-30 14:33N 46°46' E 031°57'0 0.0
2014-Sep-30 13:33N 46°46' E 031°57'0 0.0
2014-Sep-30 12:33N 46°46' E 031°57'0 0.0
2014-Sep-30 11:33N 46°46' E 031°57'0 0.0
2014-Sep-30 10:33N 46°46' E 031°57'0 0.0
2014-Sep-30 09:33N 46°46' E 031°57'0 0.0
2014-Sep-30 08:33N 46°46' E 031°57'0 0.0
2014-Sep-30 07:33N 46°46' E 031°57'0 0.0
2014-Sep-30 06:33N 46°46' E 031°57'0 0.0
2014-Sep-30 04:33N 46°46' E 031°57'0 0.0
2014-Sep-30 03:33N 46°46' E 031°57'0 0.0
2014-Sep-30 02:33N 46°46' E 031°57'0 0.0
2014-Sep-30 01:33N 46°46' E 031°57'0 0.0
2014-Sep-30 00:33N 46°46' E 031°57'0 0.0
2014-Sep-29 23:33N 46°46' E 031°57'0 0.0
2014-Sep-29 22:33N 46°46' E 031°57'0 0.0
2014-Sep-29 21:33N 46°46' E 031°57'0 0.0
2014-Sep-29 20:33N 46°46' E 031°57'0 0.0
2014-Sep-29 19:33N 46°46' E 031°57'0 0.0
2014-Sep-29 18:33N 46°46' E 031°57'0 0.0
2014-Sep-29 17:33N 46°46' E 031°57'0 0.0
2014-Sep-29 16:33N 46°46' E 031°57'0 0.0
2014-Sep-29 15:33N 46°46' E 031°57'0 0.0
2014-Sep-29 14:33N 46°46' E 031°57'0 0.0
2014-Sep-29 13:33N 46°46' E 031°57'0 0.0
2014-Sep-29 12:33N 46°46' E 031°57'0 0.0
2014-Sep-29 11:33N 46°46' E 031°57'0 0.0
2014-Sep-29 10:33N 46°46' E 031°57'0 0.0
2014-Sep-29 09:33N 46°46' E 031°57'0 0.0
2014-Sep-29 08:33N 46°46' E 031°57'0 0.0
2014-Sep-29 07:33N 46°46' E 031°57'0 0.0
2014-Sep-29 06:33N 46°46' E 031°57'0 0.0
2014-Sep-29 05:33N 46°46' E 031°57'0 0.0
2014-Sep-29 04:33N 46°46' E 031°57'0 0.0
2014-Sep-29 03:33N 46°46' E 031°57'0 0.0
2014-Sep-29 02:33N 46°46' E 031°57'0 0.0
2014-Sep-29 01:33N 46°46' E 031°57'0 0.0
2014-Sep-29 00:33N 46°46' E 031°57'0 0.0
2014-Sep-28 23:33N 46°46' E 031°57'0 0.0
2014-Sep-28 22:33N 46°46' E 031°57'0 0.0
2014-Sep-28 21:33N 46°46' E 031°57'0 0.0
2014-Sep-28 20:33N 46°46' E 031°57'0 0.0
2014-Sep-28 19:33N 46°46' E 031°57'0 0.0
2014-Sep-28 18:33N 46°46' E 031°57'0 0.0
2014-Sep-28 17:33N 46°46' E 031°57'0 0.0
2014-Sep-28 16:33N 46°46' E 031°57'0 0.0
2014-Sep-28 15:33N 46°46' E 031°57'0 0.0
2014-Sep-28 14:33N 46°46' E 031°57'0 0.0
2014-Sep-28 13:33N 46°46' E 031°57'0 0.0
2014-Sep-28 12:33N 46°46' E 031°57'0 0.0
2014-Sep-28 11:33N 46°46' E 031°57'2 1.9
2014-Sep-28 10:33N 46°45' E 031°55'6 6.2
2014-Sep-28 09:33N 46°39' E 031°55'  
2014-Sep-25 18:19N 40°59' E 028°60'5 4.9
2014-Sep-25 17:20N 40°56' E 028°55'2 1.1
2014-Sep-25 15:17N 40°58' E 028°56'0 0.0
2014-Sep-25 14:25N 40°58' E 028°56'0 0.0
2014-Sep-25 10:32N 40°58' E 028°56'0 0.0
2014-Sep-24 21:12N 40°58' E 028°56'0 0.0
2014-Sep-24 16:14N 40°58' E 028°56'0 0.0
2014-Sep-24 13:11N 40°58' E 028°56'0 0.0
2014-Sep-24 12:18N 40°58' E 028°56'0 0.0
2014-Sep-24 08:33N 40°58' E 028°56'0 0.0
2014-Sep-24 06:15N 40°58' E 028°56'0 0.0
2014-Sep-24 04:21N 40°58' E 028°56'0 0.0
2014-Sep-24 01:26N 40°58' E 028°56'0 0.1
2014-Sep-23 18:33N 40°58' E 028°56'6 4.7
2014-Sep-23 17:12N 40°52' E 028°53'266 8.0
2014-Sep-22 08:03N 37°55' E 024°37'4810.2
2014-Sep-22 03:20N 37°18' E 023°58'810.4
2014-Sep-22 02:33N 37°11' E 023°52'1110.3
2014-Sep-22 01:30N 37°02' E 023°45'1010.2
2014-Sep-22 00:32N 36°54' E 023°38'1010.0
2014-Sep-21 23:33N 36°45' E 023°31'14 9.7
2014-Sep-21 22:07N 36°34' E 023°22'  
Track history (hours):
 
Tides and Currents Weather Stations Pressure Air Temp Water Temp Dewpoint Dewpoint Depression Visibility Wind Speed Wind Dir Waves Ship Positions

Zeynalabdin Tagiyev

Last reported at 2014-Sep-30 21:33 UTC. Time now 2014-Sep-30 22:05 UTC.
Position N 46°46' E 031°57'.

Length 140 m; draft 3.4 m.

Type: Cargo ship. MMSI: 256107000.

Date/timePositionNaut miles runAvg speedWind from/ knotsBaromVisibWave heightAir tempDewpointWater temp
2014-Sep-30 21:33N 46°46' E 031°57'0 0.0
2014-Sep-30 20:33N 46°46' E 031°57'0 0.0
2014-Sep-30 19:33N 46°46' E 031°57'0 0.0
2014-Sep-30 18:33N 46°46' E 031°57'0 0.0
2014-Sep-30 17:33N 46°46' E 031°57'0 0.0
2014-Sep-30 16:33N 46°46' E 031°57'0 0.0
2014-Sep-30 15:33N 46°46' E 031°57'0 0.0
2014-Sep-30 14:33N 46°46' E 031°57'0 0.0
2014-Sep-30 13:33N 46°46' E 031°57'0 0.0
2014-Sep-30 12:33N 46°46' E 031°57'0 0.0
2014-Sep-30 11:33N 46°46' E 031°57'0 0.0
2014-Sep-30 10:33N 46°46' E 031°57'0 0.0
2014-Sep-30 09:33N 46°46' E 031°57'0 0.0
2014-Sep-30 08:33N 46°46' E 031°57'0 0.0
2014-Sep-30 07:33N 46°46' E 031°57'0 0.0
2014-Sep-30 06:33N 46°46' E 031°57'0 0.0
2014-Sep-30 04:33N 46°46' E 031°57'0 0.0
2014-Sep-30 03:33N 46°46' E 031°57'0 0.0
2014-Sep-30 02:33N 46°46' E 031°57'0 0.0
2014-Sep-30 01:33N 46°46' E 031°57'0 0.0
2014-Sep-30 00:33N 46°46' E 031°57'0 0.0
2014-Sep-29 23:33N 46°46' E 031°57'0 0.0
2014-Sep-29 22:33N 46°46' E 031°57'0 0.0
2014-Sep-29 21:33N 46°46' E 031°57'0 0.0
2014-Sep-29 20:33N 46°46' E 031°57'0 0.0
2014-Sep-29 19:33N 46°46' E 031°57'0 0.0
2014-Sep-29 18:33N 46°46' E 031°57'0 0.0
2014-Sep-29 17:33N 46°46' E 031°57'0 0.0
2014-Sep-29 16:33N 46°46' E 031°57'0 0.0
2014-Sep-29 15:33N 46°46' E 031°57'0 0.0
2014-Sep-29 14:33N 46°46' E 031°57'0 0.0
2014-Sep-29 13:33N 46°46' E 031°57'0 0.0
2014-Sep-29 12:33N 46°46' E 031°57'0 0.0
2014-Sep-29 11:33N 46°46' E 031°57'0 0.0
2014-Sep-29 10:33N 46°46' E 031°57'0 0.0
2014-Sep-29 09:33N 46°46' E 031°57'0 0.0
2014-Sep-29 08:33N 46°46' E 031°57'0 0.0
2014-Sep-29 07:33N 46°46' E 031°57'0 0.0
2014-Sep-29 06:33N 46°46' E 031°57'0 0.0
2014-Sep-29 05:33N 46°46' E 031°57'0 0.0
2014-Sep-29 04:33N 46°46' E 031°57'0 0.0
2014-Sep-29 03:33N 46°46' E 031°57'0 0.0
2014-Sep-29 02:33N 46°46' E 031°57'0 0.0
2014-Sep-29 01:33N 46°46' E 031°57'0 0.0
2014-Sep-29 00:33N 46°46' E 031°57'0 0.0
2014-Sep-28 23:33N 46°46' E 031°57'0 0.0
2014-Sep-28 22:33N 46°46' E 031°57'0 0.0
2014-Sep-28 21:33N 46°46' E 031°57'0 0.0
2014-Sep-28 20:33N 46°46' E 031°57'0 0.0
2014-Sep-28 19:33N 46°46' E 031°57'0 0.0
2014-Sep-28 18:33N 46°46' E 031°57'0 0.0
2014-Sep-28 17:33N 46°46' E 031°57'0 0.0
2014-Sep-28 16:33N 46°46' E 031°57'0 0.0
2014-Sep-28 15:33N 46°46' E 031°57'0 0.0
2014-Sep-28 14:33N 46°46' E 031°57'0 0.0
2014-Sep-28 13:33N 46°46' E 031°57'0 0.0
2014-Sep-28 12:33N 46°46' E 031°57'0 0.0
2014-Sep-28 11:33N 46°46' E 031°57'2 1.9
2014-Sep-28 10:33N 46°45' E 031°55'6 6.2
2014-Sep-28 09:33N 46°39' E 031°55'  
2014-Sep-25 18:19N 40°59' E 028°60'5 4.9
2014-Sep-25 17:20N 40°56' E 028°55'2 1.1
2014-Sep-25 15:17N 40°58' E 028°56'0 0.0
2014-Sep-25 14:25N 40°58' E 028°56'0 0.0
2014-Sep-25 10:32N 40°58' E 028°56'0 0.0
2014-Sep-24 21:12N 40°58' E 028°56'0 0.0
2014-Sep-24 16:14N 40°58' E 028°56'0 0.0
2014-Sep-24 13:11N 40°58' E 028°56'0 0.0
2014-Sep-24 12:18N 40°58' E 028°56'0 0.0
2014-Sep-24 08:33N 40°58' E 028°56'0 0.0
2014-Sep-24 06:15N 40°58' E 028°56'0 0.0
2014-Sep-24 04:21N 40°58' E 028°56'0 0.0
2014-Sep-24 01:26N 40°58' E 028°56'0 0.1
2014-Sep-23 18:33N 40°58' E 028°56'6 4.7
2014-Sep-23 17:12N 40°52' E 028°53'266 8.0
2014-Sep-22 08:03N 37°55' E 024°37'4810.2
2014-Sep-22 03:20N 37°18' E 023°58'810.4
2014-Sep-22 02:33N 37°11' E 023°52'1110.3
2014-Sep-22 01:30N 37°02' E 023°45'1010.2
2014-Sep-22 00:32N 36°54' E 023°38'1010.0
2014-Sep-21 23:33N 36°45' E 023°31'14 9.7
2014-Sep-21 22:07N 36°34' E 023°22'  

Dump ship's entire track history